Ames, Iowa
Current Conditions -  °F | °C
As of 5:53 AM on Thursday 27 Nov 2014 (Local Time) from KAMW Reporting Station
Clear Clear  
Wind Chill: -14°   Ceiling: Unl
Heat Index:   Visibility: 10mi
Dew Point: -5°   Wind: 10mph
Humidity: 72%   Direction: 330°NNW
Pressure: 30.49"   Gusts: NA
Location:  42.03°N, 93.62°W
Report Text: KAMW 271153Z AUTO 33009KT 10SM CLR M17/M21 A3049 RMK AO2 SLP341 60000 70009 T11671206 11072 21167 53015 $
Loading
Personal Weather Stations






























Interactive Weather Map New forecast layout! Learn more

10-Day Weather Forecast

Advertisements
Track Severe Weather on mobile